Time;durP1;ratioP1;P1;durP2;ratioP2;P2;SDS_P1;SDS_P2;PMS_P1;PMS_P2;Temp;Humidity;BMP_temperature;BMP_pressure;BME280_temperature;BME280_humidity;BME280_pressure;Samples;Min_cycle;Max_cycle;Signal;HPM_P1;HPM_P2
2021/04/27 14:05:54;;;;;;;4.40;3.37;;;;;;;6.58;100.00;98966.55;1808111;77;22040;-66
2021/04/27 14:08:23;;;;;;;4.25;3.00;;;;;;;6.62;100.00;98970.98;1797509;78;21010;-66
2021/04/27 14:10:53;;;;;;;4.20;3.17;;;;;;;6.73;100.00;98972.36;1803652;78;21370;-66
2021/04/27 14:13:22;;;;;;;3.80;2.95;;;;;;;6.83;100.00;98969.36;1802118;78;21169;-65
2021/04/27 14:15:52;;;;;;;3.67;2.50;;;;;;;6.90;100.00;98972.02;1804433;78;20995;-66
2021/04/27 14:18:22;;;;;;;5.08;2.65;;;;;;;6.96;100.00;98971.18;1801793;78;20979;-59
2021/04/27 14:20:52;;;;;;;3.37;2.85;;;;;;;7.04;100.00;98967.28;1804308;78;20948;-60
2021/04/27 14:23:22;;;;;;;3.62;2.72;;;;;;;7.10;100.00;98961.66;1807231;78;21374;-60
2021/04/27 14:25:53;;;;;;;3.08;2.77;;;;;;;7.18;100.00;98963.02;1804345;78;21560;-61
2021/04/27 14:28:23;;;;;;;5.97;3.62;;;;;;;7.28;100.00;98966.11;1807076;78;20930;-60
2021/04/27 14:30:53;;;;;;;4.55;2.98;;;;;;;7.33;100.00;98960.45;1805251;78;20998;-60
2021/04/27 14:33:23;;;;;;;3.52;2.75;;;;;;;7.39;100.00;98959.16;1803974;78;20922;-60
2021/04/27 14:35:53;;;;;;;4.80;3.10;;;;;;;7.40;100.00;98957.41;1801402;78;21202;-60
2021/04/27 14:38:23;;;;;;;4.35;2.70;;;;;;;7.43;100.00;98953.48;1806886;78;20949;-61
2021/04/27 14:40:54;;;;;;;3.60;2.27;;;;;;;7.51;100.00;98955.69;1795156;78;21180;-60
2021/04/27 14:43:25;;;;;;;5.60;2.22;;;;;;;7.61;100.00;98952.69;1807994;78;21568;-60
2021/04/27 14:45:54;;;;;;;3.20;2.55;;;;;;;7.64;100.00;98952.70;1794360;78;21126;-60
2021/04/27 14:48:24;;;;;;;3.17;2.33;;;;;;;7.68;100.00;98949.20;1805675;78;22471;-60
2021/04/27 14:50:54;;;;;;;3.95;2.52;;;;;;;7.74;100.00;98943.53;1804829;78;21579;-61
2021/04/27 14:53:24;;;;;;;3.10;2.37;;;;;;;7.79;100.00;98939.16;1804668;78;21136;-60
2021/04/27 14:55:53;;;;;;;3.65;2.77;;;;;;;7.85;100.00;98936.54;1804175;78;21034;-60
2021/04/27 14:58:24;;;;;;;4.17;2.85;;;;;;;7.97;100.00;98940.05;1807270;78;20999;-60
2021/04/27 15:00:53;;;;;;;5.97;2.72;;;;;;;8.05;100.00;98922.58;1800419;78;21365;-61
2021/04/27 15:03:23;;;;;;;3.10;2.58;;;;;;;8.16;100.00;98922.14;1803995;78;20989;-60
2021/04/27 15:05:54;;;;;;;4.47;2.83;;;;;;;8.27;100.00;98915.56;1801233;78;21140;-60
2021/04/27 15:08:25;;;;;;;9.58;4.85;;;;;;;8.37;100.00;98918.66;1799323;79;21046;-60
2021/04/27 15:10:55;;;;;;;4.42;3.70;;;;;;;8.46;100.00;98916.02;1793448;79;21051;-61
2021/04/27 15:13:24;;;;;;;3.90;2.92;;;;;;;8.54;100.00;98912.96;1798147;79;21422;-60
2021/04/27 15:15:53;;;;;;;8.05;3.33;;;;;;;8.62;100.00;98916.45;1805630;78;21046;-59
2021/04/27 15:18:23;;;;;;;6.67;5.53;;;;;;;8.69;100.00;98908.98;1806331;78;20980;-60
2021/04/27 15:20:53;;;;;;;7.20;5.20;;;;;;;8.76;100.00;98910.72;1791653;79;21065;-60
2021/04/27 15:23:22;;;;;;;6.53;3.90;;;;;;;8.87;100.00;98908.49;1782780;80;21038;-61
2021/04/27 15:25:52;;;;;;;6.47;3.42;;;;;;;8.97;100.00;98904.95;1782637;80;21254;-61
2021/04/27 15:28:23;;;;;;;5.92;3.10;;;;;;;9.10;100.00;98904.05;1793372;79;21050;-60
2021/04/27 15:30:53;;;;;;;3.83;2.67;;;;;;;9.20;100.00;98903.13;1796404;79;21055;-67
2021/04/27 15:33:25;;;;;;;3.83;2.90;;;;;;;9.32;100.00;98900.88;1786317;79;21159;-61
2021/04/27 15:35:55;;;;;;;5.45;3.90;;;;;;;9.45;100.00;98899.48;1788702;79;21219;-61
2021/04/27 15:38:25;;;;;;;3.90;3.40;;;;;;;9.56;100.00;98894.63;1795228;79;21329;-61
2021/04/27 15:40:55;;;;;;;5.55;3.62;;;;;;;9.63;100.00;98890.63;1792240;78;21025;-60
2021/04/27 15:43:25;;;;;;;3.77;3.35;;;;;;;9.76;100.00;98890.97;1794890;79;21146;-60
2021/04/27 15:45:57;;;;;;;7.20;3.87;;;;;;;9.85;100.00;98890.03;1795017;79;20999;-61
2021/04/27 15:48:26;;;;;;;7.47;3.83;;;;;;;9.97;100.00;98891.73;1796430;79;20991;-61
2021/04/27 15:50:56;;;;;;;14.68;5.92;;;;;;;10.07;100.00;98886.81;1792725;79;21196;-61
2021/04/27 15:53:26;;;;;;;9.68;5.70;;;;;;;10.17;100.00;98888.48;1798095;78;21013;-62
2021/04/27 15:55:55;;;;;;;5.87;4.17;;;;;;;10.29;100.00;98892.36;1790691;79;21014;-61
2021/04/27 15:58:25;;;;;;;37.20;21.45;;;;;;;10.43;100.00;98890.94;1796808;79;21585;-61
2021/04/27 16:00:55;;;;;;;11.10;6.60;;;;;;;10.62;99.93;98897.78;1792653;79;21617;-61
2021/04/27 16:03:24;;;;;;;12.63;7.70;;;;;;;10.87;97.49;98893.10;1798571;79;21368;-61
2021/04/27 16:05:54;;;;;;;10.53;5.80;;;;;;;11.04;94.97;98890.30;1794911;79;21062;-61
2021/04/27 16:08:24;;;;;;;7.53;4.70;;;;;;;11.33;92.20;98898.72;1796143;79;21017;-60
2021/04/27 16:10:56;;;;;;;12.33;5.85;;;;;;;11.92;90.85;98885.63;1791798;79;21589;-62
2021/04/27 16:13:26;;;;;;;7.55;4.00;;;;;;;12.69;88.52;98891.81;1792203;79;21050;-62
2021/04/27 16:15:57;;;;;;;4.90;3.08;;;;;;;13.46;84.61;98894.74;1793069;78;21597;-62
2021/04/27 16:18:26;;;;;;;12.30;5.95;;;;;;;14.19;80.59;98889.11;1796445;78;21031;-61
2021/04/27 16:20:57;;;;;;;12.35;3.90;;;;;;;14.84;76.35;98893.20;1796555;79;21558;-61
2021/04/27 16:23:26;;;;;;;5.60;3.80;;;;;;;15.41;72.43;98892.03;1793690;79;21022;-62
2021/04/27 16:25:56;;;;;;;4.80;2.80;;;;;;;15.87;68.56;98887.14;1796120;79;21005;-62
2021/04/27 16:28:27;;;;;;;3.37;2.80;;;;;;;16.31;64.98;98891.92;1765518;79;22300;-61
2021/04/27 16:30:58;;;;;;;4.17;3.12;;;;;;;16.69;60.34;98887.14;1795769;79;21157;-60
2021/04/27 16:33:29;;;;;;;8.93;5.62;;;;;;;16.76;57.35;98888.66;1790847;79;20891;-60
2021/04/27 16:36:00;;;;;;;13.88;4.55;;;;;;;16.77;55.22;98890.41;1794950;79;20986;-62
2021/04/27 16:38:30;;;;;;;5.37;3.20;;;;;;;16.63;53.66;98887.31;1794594;79;21461;-62
2021/04/27 16:41:00;;;;;;;2.60;2.37;;;;;;;16.30;52.43;98887.98;1791368;79;21265;-60
2021/04/27 16:43:33;;;;;;;5.60;3.25;;;;;;;15.94;51.78;98893.55;1792484;79;20934;-61
2021/04/27 16:46:04;;;;;;;6.60;4.35;;;;;;;15.53;51.60;98897.44;1793503;79;21177;-60
2021/04/27 16:48:34;;;;;;;4.97;3.05;;;;;;;15.15;52.07;98901.67;1792778;79;21038;-60
2021/04/27 16:51:05;;;;;;;4.83;3.00;;;;;;;14.79;52.19;98902.63;1787354;79;21227;-60
2021/04/27 16:53:36;;;;;;;3.55;2.60;;;;;;;14.39;52.30;98900.09;1790616;78;21370;-62
2021/04/27 16:56:06;;;;;;;18.77;5.12;;;;;;;14.00;52.67;98907.67;1796562;79;21019;-60
2021/04/27 16:58:37;;;;;;;11.93;3.17;;;;;;;13.58;53.48;98911.70;1795633;78;21116;-66
2021/04/27 17:01:08;;;;;;;9.00;2.60;;;;;;;13.16;54.66;98920.04;1791393;79;21121;-60
2021/04/27 17:03:40;;;;;;;7.15;2.35;;;;;;;12.79;55.99;98915.46;1796081;79;21450;-61
2021/04/27 17:06:10;;;;;;;4.17;2.30;;;;;;;12.41;57.36;98918.77;1795874;78;21190;-60
2021/04/27 17:08:42;;;;;;;6.00;2.20;;;;;;;12.05;59.00;98923.31;1764435;79;21488;-60
2021/04/27 17:11:11;;;;;;;4.70;2.25;;;;;;;11.71;60.62;98935.65;1794545;79;21092;-60
2021/04/27 17:13:42;;;;;;;3.22;2.50;;;;;;;11.39;62.31;98939.17;1790860;79;21283;-60
2021/04/27 17:16:12;;;;;;;5.25;2.83;;;;;;;11.09;63.92;98937.30;1808238;79;21444;-60
2021/04/27 17:18:43;;;;;;;5.70;2.20;;;;;;;10.85;65.44;98941.51;1814642;79;21201;-60
2021/04/27 17:21:13;;;;;;;3.30;2.20;;;;;;;10.59;67.12;98937.38;1814621;79;20943;-60
2021/04/27 17:23:44;;;;;;;3.12;2.10;;;;;;;10.36;68.90;98941.95;1814662;79;20938;-60
2021/04/27 17:26:13;;;;;;;3.05;2.70;;;;;;;10.14;70.64;98950.45;1814612;79;21010;-59
2021/04/27 17:28:43;;;;;;;4.72;2.37;;;;;;;9.93;72.64;98940.03;1814796;79;21457;-60
2021/04/27 17:31:13;;;;;;;3.02;2.27;;;;;;;9.72;74.18;98954.22;1814623;79;21375;-60
2021/04/27 17:33:43;;;;;;;3.67;2.62;;;;;;;9.51;75.44;98953.02;1814532;79;20891;-60
2021/04/27 17:36:14;;;;;;;3.75;2.12;;;;;;;9.32;76.91;98949.57;1814669;79;20926;-60
2021/04/27 17:38:44;;;;;;;4.85;2.70;;;;;;;9.16;78.08;98959.28;1814802;79;20934;-60
2021/04/27 17:41:16;;;;;;;;;;;;;;;8.96;79.46;98962.39;1803061;78;21116;-62
2021/04/27 17:43:45;;;;;;;5.50;2.50;;;;;;;8.78;80.87;98962.00;1795392;79;22121;-61
2021/04/27 17:46:15;;;;;;;4.45;2.60;;;;;;;8.62;82.00;98962.91;1794492;79;21235;-62
2021/04/27 17:48:45;;;;;;;3.55;2.37;;;;;;;8.51;83.21;98969.45;1794118;79;21491;-60
2021/04/27 17:51:15;;;;;;;3.00;2.60;;;;;;;8.35;84.66;98972.97;1796438;79;21090;-62
2021/04/27 17:53:45;;;;;;;4.65;2.70;;;;;;;8.21;85.53;98979.50;1795643;79;21616;-62
2021/04/27 17:56:14;;;;;;;4.37;2.50;;;;;;;8.07;86.22;98981.25;1796346;79;22243;-61
2021/04/27 17:58:44;;;;;;;5.15;3.15;;;;;;;7.91;87.03;98986.88;1790062;79;21629;-60
2021/04/27 18:01:14;;;;;;;4.55;4.05;;;;;;;7.76;88.19;98994.73;1796608;79;21033;-60
2021/04/27 18:03:44;;;;;;;16.10;12.00;;;;;;;7.58;89.78;98989.88;1790991;79;21017;-62
2021/04/27 18:06:14;;;;;;;25.20;16.73;;;;;;;7.47;91.28;98997.23;1802494;78;20940;-60
2021/04/27 18:08:44;;;;;;;14.58;9.95;;;;;;;7.36;92.87;98998.94;1799753;78;21599;-60
2021/04/27 18:11:13;;;;;;;10.93;6.90;;;;;;;7.26;94.21;99006.77;1798914;78;20935;-61
2021/04/27 18:13:43;;;;;;;9.50;6.83;;;;;;;7.20;95.23;99003.24;1792672;78;21049;-61
2021/04/27 18:16:13;;;;;;;9.05;6.10;;;;;;;7.13;96.14;99009.33;1805392;78;21041;-62
2021/04/27 18:18:44;;;;;;;7.72;5.62;;;;;;;7.07;96.95;99007.52;1800701;78;21041;-62
2021/04/27 18:21:15;;;;;;;6.70;5.50;;;;;;;7.00;98.00;99012.72;1800308;78;21463;-65
2021/04/27 18:23:45;;;;;;;5.60;4.85;;;;;;;6.95;98.99;99010.95;1800101;78;21037;-61
2021/04/27 18:26:15;;;;;;;8.48;5.42;;;;;;;6.91;99.99;99013.11;1814428;78;21044;-61
2021/04/27 18:28:45;;;;;;;6.28;4.67;;;;;;;6.89;100.00;99017.47;1820331;78;21014;-60
2021/04/27 18:31:14;;;;;;;7.62;5.10;;;;;;;6.86;100.00;99022.69;1820352;78;21179;-60
2021/04/27 18:33:44;;;;;;;7.25;4.33;;;;;;;6.78;100.00;99028.32;1820298;78;21378;-61
2021/04/27 18:36:16;;;;;;;5.45;3.87;;;;;;;6.65;100.00;99030.41;1820224;78;21127;-61
2021/04/27 18:38:46;;;;;;;5.20;4.10;;;;;;;6.54;100.00;99029.41;1806297;78;21510;-61
2021/04/27 18:41:15;;;;;;;5.75;3.65;;;;;;;6.45;100.00;99021.05;1787684;80;21717;-61
2021/04/27 18:43:45;;;;;;;4.90;4.00;;;;;;;6.39;100.00;99029.30;1787675;80;21173;-60
2021/04/27 18:46:15;;;;;;;5.12;4.40;;;;;;;6.35;100.00;99024.89;1811009;78;21371;-60
2021/04/27 18:48:45;;;;;;;5.00;4.15;;;;;;;6.33;100.00;99030.55;1820290;78;21175;-61
2021/04/27 18:51:16;;;;;;;5.37;4.62;;;;;;;6.31;100.00;99041.02;1820366;78;21048;-61
2021/04/27 18:53:45;;;;;;;5.12;4.55;;;;;;;6.27;100.00;99036.18;1820575;78;21132;-61
2021/04/27 18:56:16;;;;;;;6.30;5.15;;;;;;;6.25;100.00;99032.67;1820522;78;20969;-61
2021/04/27 18:58:46;;;;;;;11.12;5.92;;;;;;;6.24;100.00;99037.46;1820544;78;21204;-61
2021/04/27 19:01:15;;;;;;;7.67;5.45;;;;;;;6.21;100.00;99039.17;1820440;78;21026;-61
2021/04/27 19:03:45;;;;;;;7.70;4.95;;;;;;;6.20;100.00;99038.73;1820522;78;20977;-61
2021/04/27 19:06:16;;;;;;;9.38;5.12;;;;;;;6.17;100.00;99043.51;1818168;78;21572;-61
2021/04/27 19:08:47;;;;;;;6.80;4.62;;;;;;;6.12;100.00;99039.94;1815048;78;21084;-60
2021/04/27 19:11:17;;;;;;;6.83;4.97;;;;;;;6.06;100.00;99042.49;1814752;78;21358;-61
2021/04/27 19:13:48;;;;;;;7.37;4.67;;;;;;;5.95;100.00;99041.51;1814645;78;21032;-60
2021/04/27 19:16:18;;;;;;;11.55;5.17;;;;;;;5.87;100.00;99043.13;1814637;78;20974;-61
2021/04/27 19:18:48;;;;;;;8.63;5.03;;;;;;;5.80;100.00;99047.86;1814667;78;20974;-61
2021/04/27 19:21:19;;;;;;;8.65;4.97;;;;;;;5.77;100.00;99046.52;1814714;79;21088;-61
2021/04/27 19:23:50;;;;;;;7.80;5.12;;;;;;;5.76;100.00;99052.61;1814658;78;21420;-61
2021/04/27 19:26:20;;;;;;;6.00;4.90;;;;;;;5.74;100.00;99058.26;1814624;79;20910;-60
2021/04/27 19:28:51;;;;;;;9.58;4.95;;;;;;;5.73;100.00;99053.45;1814689;78;21061;-60
2021/04/27 19:31:21;;;;;;;7.65;5.12;;;;;;;5.69;100.00;99052.54;1814713;79;20935;-60
2021/04/27 19:33:51;;;;;;;10.65;5.50;;;;;;;5.69;100.00;99055.59;1814777;78;21508;-61
2021/04/27 19:36:21;;;;;;;8.93;5.65;;;;;;;5.69;100.00;99057.77;1814717;79;21264;-61
2021/04/27 19:38:51;;;;;;;8.48;5.00;;;;;;;5.68;100.00;99063.87;1814615;79;21002;-61
2021/04/27 19:41:22;;;;;;;6.67;5.22;;;;;;;5.64;100.00;99059.86;1814690;78;21061;-61
2021/04/27 19:43:54;;;;;;;6.97;5.77;;;;;;;5.53;100.00;99064.95;1815005;79;20930;-61
2021/04/27 19:46:25;;;;;;;7.25;5.15;;;;;;;5.43;100.00;99065.70;1814660;78;21606;-61
2021/04/27 19:48:58;;;;;;;8.08;5.70;;;;;;;5.36;100.00;99063.44;1814651;78;21478;-61
2021/04/27 19:51:27;;;;;;;;;;;;;;;5.32;100.00;99066.88;1817466;79;21136;-61
2021/04/27 19:53:58;;;;;;;8.80;5.12;;;;;;;5.32;100.00;99071.22;1814759;78;20136;-61
2021/04/27 19:56:29;;;;;;;10.18;6.22;;;;;;;5.28;100.00;99070.30;1814744;79;21580;-60
2021/04/27 19:59:00;;;;;;;6.65;5.50;;;;;;;5.24;100.00;99068.50;1814715;78;21464;-61
2021/04/27 20:01:33;;;;;;;6.37;5.53;;;;;;;5.21;100.00;99067.59;1814875;78;21799;-61
2021/04/27 20:04:05;;;;;;;8.58;5.70;;;;;;;5.18;100.00;99079.28;1814582;79;21049;-61
2021/04/27 20:06:37;;;;;;;8.58;5.92;;;;;;;5.12;100.00;99076.15;1814477;78;21092;-61
2021/04/27 20:09:09;;;;;;;7.03;5.10;;;;;;;5.09;100.00;99077.84;1814803;78;21243;-61
2021/04/27 20:11:44;;;;;;;7.33;5.40;;;;;;;5.06;100.00;99075.63;1814629;78;21029;-60
2021/04/27 20:14:15;;;;;;;6.65;5.05;;;;;;;5.02;100.00;99076.45;1814688;78;21133;-61
2021/04/27 20:16:47;;;;;;;7.22;5.42;;;;;;;4.99;100.00;99078.14;1814645;78;21192;-61
2021/04/27 20:19:18;;;;;;;8.70;4.78;;;;;;;4.98;100.00;99086.41;1814722;78;20931;-61
2021/04/27 20:21:48;;;;;;;9.33;4.70;;;;;;;4.97;100.00;99080.73;1814662;78;21503;-61
2021/04/27 20:24:19;;;;;;;8.28;5.72;;;;;;;4.96;100.00;99086.81;1814844;79;21473;-61
2021/04/27 20:26:50;;;;;;;10.63;6.33;;;;;;;4.94;100.00;99083.72;1814653;79;21364;-62
2021/04/27 20:29:21;;;;;;;12.82;6.92;;;;;;;4.90;100.00;99089.77;1814636;78;21081;-62
2021/04/27 20:31:53;;;;;;;10.53;7.42;;;;;;;4.86;100.00;99090.14;1814895;78;21485;-62
2021/04/27 20:34:25;;;;;;;12.65;7.95;;;;;;;4.84;100.00;99087.05;1814638;78;20938;-61
2021/04/27 20:36:56;;;;;;;17.27;8.83;;;;;;;4.84;100.00;99090.55;1814925;78;21125;-61
2021/04/27 20:39:28;;;;;;;14.13;10.35;;;;;;;4.86;100.00;99097.11;1814925;78;21197;-61
2021/04/27 20:41:59;;;;;;;13.43;9.23;;;;;;;4.84;100.00;99094.47;1814612;78;20986;-61
2021/04/27 20:44:34;;;;;;;14.20;9.10;;;;;;;4.84;100.00;99098.81;1814844;78;21475;-61
2021/04/27 20:47:09;;;;;;;13.53;9.73;;;;;;;4.84;100.00;99099.70;1814546;78;21004;-61
2021/04/27 20:49:42;;;;;;;;;;;;;;;4.83;100.00;99097.94;1817282;78;20918;-61
2021/04/27 20:52:13;;;;;;;13.77;9.10;;;;;;;4.81;100.00;99098.34;1814999;78;22127;-61
2021/04/27 20:54:44;;;;;;;11.03;8.85;;;;;;;4.79;100.00;99101.36;1814482;78;21152;-61
2021/04/27 20:57:18;;;;;;;13.22;9.33;;;;;;;4.72;100.00;99100.77;1814788;78;21485;-61
2021/04/27 20:59:49;;;;;;;13.53;10.08;;;;;;;4.67;100.00;99107.66;1814680;79;21052;-61
2021/04/27 21:02:21;;;;;;;15.72;11.00;;;;;;;4.58;100.00;99116.65;1814736;78;21073;-61
2021/04/27 21:04:51;;;;;;;11.85;9.23;;;;;;;4.51;100.00;99111.75;1814614;79;22184;-61
2021/04/27 21:07:23;;;;;;;12.93;9.13;;;;;;;4.47;100.00;99111.23;1817647;78;20953;-61
2021/04/27 21:09:54;;;;;;;11.65;8.75;;;;;;;4.45;100.00;99117.30;1820579;78;21476;-61
2021/04/27 21:12:26;;;;;;;14.00;9.13;;;;;;;4.41;100.00;99110.70;1820474;78;20945;-62
2021/04/27 21:14:58;;;;;;;10.18;7.87;;;;;;;4.39;100.00;99118.06;1820653;78;21480;-61
2021/04/27 21:17:29;;;;;;;15.70;7.22;;;;;;;4.32;100.00;99118.81;1820526;78;21205;-62
2021/04/27 21:20:00;;;;;;;10.18;7.92;;;;;;;4.25;100.00;99124.73;1820345;78;21117;-61
2021/04/27 21:22:32;;;;;;;9.55;8.00;;;;;;;4.20;100.00;99125.08;1820463;78;21607;-61
2021/04/27 21:25:08;;;;;;;10.10;8.10;;;;;;;4.15;100.00;99121.08;1820711;78;20929;-61
2021/04/27 21:27:40;;;;;;;10.72;7.47;;;;;;;4.13;100.00;99127.13;1820453;78;21053;-61
2021/04/27 21:30:14;;;;;;;10.32;7.42;;;;;;;4.09;100.00;99130.09;1820389;78;22107;-61
2021/04/27 21:32:47;;;;;;;12.33;9.18;;;;;;;4.07;100.00;99131.38;1820145;78;21021;-61
2021/04/27 21:35:18;;;;;;;14.23;9.38;;;;;;;4.05;100.00;99125.24;1820414;78;21579;-61
2021/04/27 21:37:49;;;;;;;;;;;;;;;4.03;100.00;99136.51;1823096;78;20997;-61
2021/04/27 21:40:20;;;;;;;13.58;8.93;;;;;;;4.01;100.00;99134.29;1820437;78;20164;-61
2021/04/27 21:42:52;;;;;;;11.00;7.87;;;;;;;3.99;100.00;99137.30;1820503;78;26728;-61
2021/04/27 21:45:25;;;;;;;10.88;8.10;;;;;;;4.00;100.00;99140.36;1820235;78;21152;-61
2021/04/27 21:47:57;;;;;;;10.93;7.90;;;;;;;4.01;100.00;99138.20;1820262;78;20978;-61
2021/04/27 21:50:27;;;;;;;10.55;7.80;;;;;;;4.02;100.00;99143.45;1820374;78;20922;-61
2021/04/27 21:52:59;;;;;;;11.90;8.05;;;;;;;4.02;100.00;99139.97;1820382;78;21494;-61
2021/04/27 21:55:30;;;;;;;10.40;8.33;;;;;;;4.03;100.00;99144.34;1820516;78;21468;-61
2021/04/27 21:58:01;;;;;;;11.53;8.43;;;;;;;4.03;100.00;99146.95;1820295;78;20918;-61
2021/04/27 22:00:37;;;;;;;12.60;8.13;;;;;;;4.01;100.00;99144.73;1820336;78;21052;-61
2021/04/27 22:03:12;;;;;;;10.72;7.60;;;;;;;4.00;100.00;99142.97;1820277;78;20992;-61
2021/04/27 22:05:42;;;;;;;9.55;8.15;;;;;;;4.02;100.00;99142.58;1820331;78;21053;-61
2021/04/27 22:08:15;;;;;;;12.63;8.75;;;;;;;4.02;100.00;99147.80;1815663;78;21367;-61
2021/04/27 22:10:46;;;;;;;10.65;8.20;;;;;;;3.96;100.00;99146.38;1814545;79;21120;-61
2021/04/27 22:13:21;;;;;;;12.23;8.38;;;;;;;3.93;100.00;99141.09;1814736;78;21524;-61
2021/04/27 22:15:51;;;;;;;12.18;8.73;;;;;;;3.91;100.00;99143.67;1814806;78;21061;-61
2021/04/27 22:18:32;;;;;;;11.10;8.80;;;;;;;3.94;100.00;99148.07;1842245;77;23273;-61
2021/04/27 22:21:04;;;;;;;10.47;6.10;;;;;;;3.89;100.00;99149.70;1817681;79;20929;-62
2021/04/27 22:23:36;;;;;;;11.95;8.68;;;;;;;3.87;100.00;99147.06;1817622;78;22374;-61
2021/04/27 22:26:10;;;;;;;10.88;8.95;;;;;;;3.85;100.00;99143.97;1817567;78;20978;-61
2021/04/27 22:28:40;;;;;;;11.53;8.80;;;;;;;3.82;100.00;99144.79;1817496;78;21037;-61
2021/04/27 22:31:11;;;;;;;14.35;8.93;;;;;;;3.82;100.00;99143.91;1817404;78;20918;-61
2021/04/27 22:33:43;;;;;;;11.22;8.63;;;;;;;3.79;100.00;99144.30;1817445;78;21492;-61
2021/04/27 22:36:17;;;;;;;10.85;8.78;;;;;;;3.77;100.00;99148.58;1817467;78;22135;-61
2021/04/27 22:38:49;;;;;;;11.85;8.30;;;;;;;3.74;100.00;99143.72;1817524;78;27063;-61
2021/04/27 22:41:20;;;;;;;9.98;8.03;;;;;;;3.71;100.00;99152.36;1817355;79;20907;-61
2021/04/27 22:43:52;;;;;;;;;;;;;;;3.67;100.00;99147.92;1820142;79;21472;-61
2021/04/27 22:46:23;;;;;;;11.73;8.63;;;;;;;3.68;100.00;99156.21;1817453;78;20113;-61
2021/04/27 22:48:56;;;;;;;12.45;8.25;;;;;;;3.68;100.00;99149.69;1817590;79;21187;-61
2021/04/27 22:51:27;;;;;;;13.28;8.88;;;;;;;3.66;100.00;99158.33;1817500;78;21009;-61
2021/04/27 22:54:04;;;;;;;13.28;8.70;;;;;;;3.62;100.00;99152.17;1817543;78;21152;-61
2021/04/27 22:56:32;;;;;;;;;;;;;;;3.62;100.00;99153.90;1820108;79;21092;-61
2021/04/27 22:59:04;;;;;;;11.20;7.80;;;;;;;3.63;100.00;99163.48;1817439;78;20478;-61
2021/04/27 23:01:36;;;;;;;11.43;7.95;;;;;;;3.63;100.00;99164.79;1817571;78;21124;-61
2021/04/27 23:04:07;;;;;;;11.90;7.97;;;;;;;3.63;100.00;99166.09;1817531;79;21468;-62
2021/04/27 23:06:38;;;;;;;12.20;8.03;;;;;;;3.62;100.00;99165.21;1817519;78;20910;-61
2021/04/27 23:09:09;;;;;;;9.55;8.13;;;;;;;3.58;100.00;99165.11;1817358;78;20930;-61
2021/04/27 23:11:41;;;;;;;12.43;8.85;;;;;;;3.53;100.00;99167.63;1817570;78;20926;-61
2021/04/27 23:14:15;;;;;;;11.97;8.20;;;;;;;3.48;100.00;99157.09;1817413;78;21364;-61
2021/04/27 23:16:52;;;;;;;11.83;9.50;;;;;;;3.47;100.00;99157.05;1817028;79;21128;-61
2021/04/27 23:19:23;;;;;;;11.50;9.15;;;;;;;3.42;100.00;99156.95;1815246;79;21058;-61
2021/04/27 23:21:56;;;;;;;12.35;8.40;;;;;;;3.39;100.00;99158.61;1815486;77;21535;-60
2021/04/27 23:24:30;;;;;;;10.93;8.95;;;;;;;3.35;100.00;99155.48;1815399;78;21683;-61
2021/04/27 23:27:02;;;;;;;11.83;8.53;;;;;;;3.32;100.00;99160.63;1815475;77;21192;-61
2021/04/27 23:29:35;;;;;;;12.23;9.38;;;;;;;3.24;100.00;99155.63;1814963;77;21045;-60
2021/04/27 23:32:06;;;;;;;12.43;9.18;;;;;;;3.21;100.00;99152.95;1814823;79;20927;-61
2021/04/27 23:34:37;;;;;;;13.25;8.93;;;;;;;3.19;100.00;99163.34;1814793;77;20911;-61
2021/04/27 23:37:09;;;;;;;13.32;8.93;;;;;;;3.17;100.00;99166.34;1814786;79;21473;-61
2021/04/27 23:39:43;;;;;;;12.82;9.13;;;;;;;3.18;100.00;99163.31;1814854;77;22280;-61
2021/04/27 23:42:14;;;;;;;;;;;;;;;3.20;100.00;99157.70;1817414;79;21021;-60
2021/04/27 23:44:45;;;;;;;10.20;8.43;;;;;;;3.17;100.00;99162.42;1814809;77;20204;-61
2021/04/27 23:47:25;;;;;;;14.20;8.38;;;;;;;3.12;100.00;99159.72;1814712;77;20994;-60
2021/04/27 23:49:57;;;;;;;13.25;9.15;;;;;;;3.07;100.00;99163.94;1814772;77;21544;-60
2021/04/27 23:52:28;;;;;;;14.40;9.65;;;;;;;3.02;100.00;99161.65;1814880;77;21377;-60
2021/04/27 23:54:59;;;;;;;14.20;9.48;;;;;;;3.02;100.00;99174.67;1814729;79;20973;-61
2021/04/27 23:57:30;;;;;;;14.40;9.33;;;;;;;3.02;100.00;99165.98;1814700;79;21453;-60
